createdAt,value
2023-01-17T00:01:07.807Z,4.06
2023-01-17T00:03:37.653Z,4.09
2023-01-17T00:06:04.465Z,4.12
2023-01-17T00:08:31.039Z,4.12
2023-01-17T00:10:57.607Z,4.07
2023-01-17T00:13:24.143Z,4.04
2023-01-17T00:15:50.729Z,4.05
2023-01-17T00:18:17.336Z,4.07
2023-01-17T00:20:43.813Z,4.08
2023-01-17T00:23:39.788Z,4.09
2023-01-17T00:26:14.713Z,4.08
2023-01-17T00:28:42.474Z,4.02
2023-01-17T00:31:10.949Z,3.95
2023-01-17T00:33:37.477Z,3.89
2023-01-17T00:36:05.327Z,3.84
2023-01-17T00:38:34.464Z,3.80
2023-01-17T00:41:13.086Z,3.75
2023-01-17T00:43:40.330Z,3.70
2023-01-17T00:46:07.909Z,3.64
2023-01-17T00:48:36.019Z,3.64
2023-01-17T00:51:03.451Z,3.65
2023-01-17T00:53:29.987Z,3.67
2023-01-17T00:56:00.112Z,3.70
2023-01-17T00:58:26.504Z,3.72
2023-01-17T01:00:53.612Z,3.77
2023-01-17T01:03:20.613Z,3.74
2023-01-17T01:05:47.039Z,3.83
2023-01-17T01:08:24.709Z,3.98
2023-01-17T01:10:51.164Z,4.08
2023-01-17T01:13:18.747Z,4.20
2023-01-17T01:15:45.269Z,4.27
2023-01-17T01:18:12.725Z,4.34
2023-01-17T01:20:39.259Z,4.38
2023-01-17T01:23:06.209Z,4.35
2023-01-17T01:25:32.710Z,4.30
2023-01-17T01:28:07.040Z,4.33
2023-01-17T01:30:33.522Z,4.33
2023-01-17T01:33:07.627Z,4.31
2023-01-17T01:35:36.763Z,4.22
2023-01-17T01:38:03.757Z,4.13
2023-01-17T01:40:30.324Z,4.06
2023-01-17T01:42:59.223Z,4.06
2023-01-17T01:45:31.559Z,4.03
2023-01-17T01:48:14.760Z,3.96
2023-01-17T01:50:41.500Z,3.88
2023-01-17T01:53:08.205Z,3.83
2023-01-17T01:55:40.314Z,3.77
2023-01-17T01:58:24.246Z,3.70
2023-01-17T02:00:51.988Z,3.61
2023-01-17T02:03:26.943Z,3.55
2023-01-17T02:05:53.707Z,3.59
2023-01-17T02:08:23.004Z,3.51
2023-01-17T02:10:50.821Z,3.43
2023-01-17T02:13:20.705Z,3.37
2023-01-17T02:16:08.829Z,3.31
2023-01-17T02:19:11.082Z,3.28
2023-01-17T02:22:03.648Z,3.34
2023-01-17T02:24:51.891Z,3.48
2023-01-17T02:27:31.435Z,3.54
2023-01-17T02:30:23.059Z,3.57
2023-01-17T02:33:08.856Z,3.62
2023-01-17T02:35:47.068Z,3.73
2023-01-17T02:38:34.400Z,3.82
2023-01-17T02:41:07.053Z,3.91
2023-01-17T02:43:35.214Z,3.98
2023-01-17T02:46:01.838Z,4.06
2023-01-17T02:48:31.749Z,4.12
2023-01-17T02:51:10.455Z,4.17
2023-01-17T02:54:01.977Z,4.21
2023-01-17T02:56:46.751Z,4.19
2023-01-17T02:59:32.122Z,4.16
2023-01-17T03:02:14.179Z,4.12
2023-01-17T03:04:49.508Z,4.08
2023-01-17T03:07:21.964Z,4.04
2023-01-17T03:09:51.093Z,3.98
2023-01-17T03:12:17.603Z,4.03
2023-01-17T03:14:44.076Z,4.05
2023-01-17T03:17:10.687Z,4.07
2023-01-17T03:19:37.158Z,4.13
2023-01-17T03:22:03.799Z,4.15
2023-01-17T03:24:30.758Z,4.21
2023-01-17T03:26:57.253Z,4.29
2023-01-17T03:29:24.067Z,4.32
2023-01-17T03:31:50.534Z,4.26
2023-01-17T03:34:16.971Z,4.18
2023-01-17T03:36:43.444Z,4.15
2023-01-17T03:39:09.901Z,4.12
2023-01-17T03:41:36.320Z,4.07
2023-01-17T03:44:02.823Z,4.02
2023-01-17T03:46:29.377Z,3.93
2023-01-17T03:48:55.837Z,3.91
2023-01-17T03:51:22.556Z,3.92
2023-01-17T03:53:49.292Z,3.88
2023-01-17T03:56:15.830Z,3.79
2023-01-17T03:58:42.712Z,3.78
2023-01-17T04:01:09.502Z,3.79
2023-01-17T04:03:35.955Z,3.73
2023-01-17T04:06:02.412Z,3.66
2023-01-17T04:08:28.818Z,3.61
2023-01-17T04:10:55.280Z,3.56
2023-01-17T04:13:21.919Z,3.51
2023-01-17T04:15:50.532Z,3.48
2023-01-17T04:18:19.403Z,3.44
2023-01-17T04:20:46.507Z,3.51
2023-01-17T04:23:13.177Z,3.57
2023-01-17T04:25:39.639Z,3.60
2023-01-17T04:28:06.185Z,3.65
2023-01-17T04:30:33.488Z,3.65
2023-01-17T04:33:00.318Z,3.64
2023-01-17T04:35:26.931Z,3.61
2023-01-17T04:37:53.402Z,3.59
2023-01-17T04:40:20.317Z,3.65
2023-01-17T04:42:47.982Z,3.68
2023-01-17T04:45:15.460Z,3.73
2023-01-17T04:47:41.900Z,3.73
2023-01-17T04:50:10.013Z,3.77
2023-01-17T04:52:36.531Z,3.95
2023-01-17T04:55:03.015Z,4.06
2023-01-17T04:57:29.774Z,4.10
2023-01-17T04:59:56.314Z,4.24
2023-01-17T05:02:22.995Z,4.39
2023-01-17T05:04:50.125Z,4.49
2023-01-17T05:07:16.525Z,4.63
2023-01-17T05:09:43.026Z,4.73
2023-01-17T05:12:09.886Z,4.86
2023-01-17T05:14:36.382Z,4.99
2023-01-17T05:17:03.072Z,5.08
2023-01-17T05:19:29.998Z,5.13
2023-01-17T05:21:56.421Z,5.14
2023-01-17T05:24:23.166Z,5.15
2023-01-17T05:26:50.337Z,5.14
2023-01-17T05:29:16.961Z,5.10
2023-01-17T05:31:43.432Z,5.02
2023-01-17T05:34:10.140Z,4.93
2023-01-17T05:36:36.681Z,4.84
2023-01-17T05:39:03.188Z,4.75
2023-01-17T05:41:29.797Z,4.65
2023-01-17T05:43:56.517Z,4.56
2023-01-17T05:46:23.135Z,4.46
2023-01-17T05:48:49.689Z,4.39
2023-01-17T05:51:16.089Z,4.35
2023-01-17T05:53:42.556Z,4.32
2023-01-17T05:56:09.013Z,4.27
2023-01-17T05:58:35.541Z,4.21
2023-01-17T06:01:02.055Z,4.15
2023-01-17T06:03:28.617Z,4.10
2023-01-17T06:05:55.086Z,4.06
2023-01-17T06:08:21.734Z,4.04
2023-01-17T06:10:48.279Z,4.04
2023-01-17T06:13:15.034Z,4.07
2023-01-17T06:15:42.309Z,4.09
2023-01-17T06:18:11.743Z,4.10
2023-01-17T06:20:39.407Z,4.09
2023-01-17T06:23:08.192Z,4.10
2023-01-17T06:25:43.499Z,4.13
2023-01-17T06:28:11.537Z,4.19
2023-01-17T06:30:38.189Z,4.23
2023-01-17T06:33:05.756Z,4.22
2023-01-17T06:35:33.100Z,4.24
2023-01-17T06:37:59.647Z,4.26
2023-01-17T06:40:27.822Z,4.26
2023-01-17T06:42:54.848Z,4.30
2023-01-17T06:45:21.616Z,4.35
2023-01-17T06:47:48.067Z,4.39
2023-01-17T06:50:15.116Z,4.41
2023-01-17T06:52:42.555Z,4.44
2023-01-17T06:55:10.227Z,4.49
2023-01-17T06:57:36.728Z,4.52
2023-01-17T07:00:04.337Z,4.53
2023-01-17T07:02:30.878Z,4.55
2023-01-17T07:04:57.491Z,4.56
2023-01-17T07:07:23.963Z,4.57
2023-01-17T07:09:50.496Z,4.59
2023-01-17T07:12:16.901Z,4.60
2023-01-17T07:14:43.484Z,4.62
2023-01-17T07:17:10.020Z,4.64
2023-01-17T07:19:36.453Z,4.65
2023-01-17T07:22:02.946Z,4.67
2023-01-17T07:24:29.441Z,4.70
2023-01-17T07:26:55.919Z,4.72
2023-01-17T07:29:22.410Z,4.75
2023-01-17T07:31:49.256Z,4.78
2023-01-17T07:34:15.896Z,4.80
2023-01-17T07:36:42.436Z,4.80
2023-01-17T07:39:11.003Z,4.82
2023-01-17T07:41:37.405Z,4.83
2023-01-17T07:44:04.055Z,4.84
2023-01-17T07:46:30.830Z,4.81
2023-01-17T07:48:57.398Z,4.74
2023-01-17T07:51:23.935Z,4.63
2023-01-17T07:53:50.615Z,4.56
2023-01-17T07:56:17.032Z,4.47
2023-01-17T07:58:43.440Z,4.39
2023-01-17T08:01:12.822Z,4.32
2023-01-17T08:03:40.024Z,4.23
2023-01-17T08:06:27.602Z,4.15
2023-01-17T08:08:54.089Z,4.08
2023-01-17T08:11:20.734Z,4.01
2023-01-17T08:13:47.696Z,3.95
2023-01-17T08:16:14.437Z,3.89
2023-01-17T08:18:41.360Z,3.85
2023-01-17T08:21:15.317Z,3.82
2023-01-17T08:23:41.842Z,3.78
2023-01-17T08:26:08.473Z,3.73
2023-01-17T08:28:35.110Z,3.70
2023-01-17T08:31:09.439Z,3.68
2023-01-17T08:33:36.025Z,3.64
2023-01-17T08:36:02.794Z,3.59
2023-01-17T08:38:29.309Z,3.54
2023-01-17T08:40:55.781Z,3.48
2023-01-17T08:43:22.385Z,3.46
2023-01-17T08:45:53.013Z,3.44
2023-01-17T08:48:19.477Z,3.44
2023-01-17T08:50:45.944Z,3.44
2023-01-17T08:53:12.402Z,3.43
2023-01-17T08:55:38.935Z,3.40
2023-01-17T08:58:05.585Z,3.37
2023-01-17T09:00:32.015Z,3.34
2023-01-17T09:02:58.569Z,3.32
2023-01-17T09:05:25.347Z,3.32
2023-01-17T09:07:51.890Z,3.31
2023-01-17T09:10:18.570Z,3.30
2023-01-17T09:12:44.973Z,3.31
2023-01-17T09:15:11.784Z,3.32
2023-01-17T09:17:38.312Z,3.31
2023-01-17T09:20:05.480Z,3.29
2023-01-17T09:22:32.110Z,3.28
2023-01-17T09:24:58.593Z,3.28
2023-01-17T09:27:25.018Z,3.27
2023-01-17T09:29:51.531Z,3.29
2023-01-17T09:32:17.960Z,3.32
2023-01-17T09:34:44.387Z,3.34
2023-01-17T09:37:10.949Z,3.35
2023-01-17T09:39:37.456Z,3.35
2023-01-17T09:42:36.389Z,3.37
2023-01-17T09:45:03.164Z,3.40
2023-01-17T09:47:42.029Z,3.39
2023-01-17T09:50:44.093Z,3.37
2023-01-17T09:53:16.920Z,3.38
2023-01-17T09:55:48.069Z,3.37
2023-01-17T09:58:43.281Z,3.40
2023-01-17T10:01:22.811Z,3.46
2023-01-17T10:04:06.047Z,3.47
2023-01-17T10:07:01.162Z,3.45
2023-01-17T10:09:58.111Z,3.48
2023-01-17T10:12:45.701Z,3.50
2023-01-17T10:15:46.196Z,3.52
2023-01-17T10:18:39.079Z,3.54
2023-01-17T10:21:39.035Z,3.54
2023-01-17T10:24:35.616Z,3.51
2023-01-17T10:27:13.175Z,3.43
2023-01-17T10:29:40.076Z,3.38
2023-01-17T10:32:11.663Z,3.36
2023-01-17T10:34:48.643Z,3.34
2023-01-17T10:37:23.214Z,3.38
2023-01-17T10:39:52.405Z,3.41
2023-01-17T10:42:26.535Z,3.38
2023-01-17T10:45:02.597Z,3.40
2023-01-17T10:47:34.233Z,3.42
2023-01-17T10:50:04.081Z,3.43
2023-01-17T10:52:47.418Z,3.45
2023-01-17T10:55:39.761Z,3.50
2023-01-17T10:58:11.651Z,3.56
2023-01-17T11:00:50.683Z,3.60
2023-01-17T11:03:19.234Z,3.68
2023-01-17T11:05:45.706Z,3.75
2023-01-17T11:08:15.418Z,3.81
2023-01-17T11:10:48.911Z,3.89
2023-01-17T11:13:21.383Z,4.06
2023-01-17T11:16:01.044Z,4.19
2023-01-17T11:18:31.334Z,4.31
2023-01-17T11:21:07.409Z,4.38
2023-01-17T11:23:35.916Z,4.40
2023-01-17T11:26:06.978Z,4.44
2023-01-17T11:28:35.856Z,4.56
2023-01-17T11:31:05.922Z,4.59
2023-01-17T11:33:43.721Z,4.53
2023-01-17T11:36:19.679Z,4.43
2023-01-17T11:39:00.199Z,4.44
2023-01-17T11:41:27.277Z,4.50
2023-01-17T11:43:58.923Z,4.55
2023-01-17T11:46:26.575Z,4.63
2023-01-17T11:48:56.291Z,4.67
2023-01-17T11:51:42.992Z,4.70
2023-01-17T11:54:25.937Z,4.72
2023-01-17T11:57:00.472Z,4.75
2023-01-17T11:59:38.423Z,4.80
2023-01-17T12:02:21.096Z,4.89
2023-01-17T12:05:32.779Z,4.99
2023-01-17T12:08:24.619Z,4.98
2023-01-17T12:10:56.650Z,4.98
2023-01-17T12:14:04.599Z,5.06
2023-01-17T12:16:48.133Z,5.16
2023-01-17T12:19:43.965Z,5.22
2023-01-17T12:22:22.597Z,5.26
2023-01-17T12:25:00.794Z,5.33
2023-01-17T12:27:43.480Z,5.37
2023-01-17T12:30:16.344Z,5.43
2023-01-17T12:33:04.723Z,5.48
2023-01-17T12:35:42.353Z,5.54
2023-01-17T12:38:31.354Z,5.57
2023-01-17T12:41:29.264Z,5.65
2023-01-17T12:44:00.164Z,5.71
2023-01-17T12:46:44.558Z,5.74
2023-01-17T12:49:29.589Z,5.77
2023-01-17T12:52:03.430Z,5.78
2023-01-17T12:54:39.153Z,5.79
2023-01-17T12:57:17.904Z,5.79
2023-01-17T12:59:56.474Z,5.82
2023-01-17T13:03:05.423Z,5.81
2023-01-17T13:05:41.672Z,5.81
2023-01-17T13:08:41.411Z,5.81
2023-01-17T13:11:19.957Z,5.78
2023-01-17T13:13:46.470Z,5.77
2023-01-17T13:16:24.700Z,5.79
2023-01-17T13:19:35.597Z,5.84
2023-01-17T13:22:07.600Z,5.89
2023-01-17T13:24:59.034Z,5.93
2023-01-17T13:27:50.677Z,5.96
2023-01-17T13:30:49.458Z,5.98
2023-01-17T13:33:57.897Z,6.00
2023-01-17T13:36:56.639Z,6.04
2023-01-17T13:39:39.774Z,6.03
2023-01-17T13:42:52.356Z,6.00
2023-01-17T13:45:22.749Z,5.96
2023-01-17T13:47:49.317Z,5.95
2023-01-17T13:50:41.045Z,5.93
2023-01-17T13:53:35.851Z,5.88
2023-01-17T13:56:28.751Z,5.81
2023-01-17T13:58:58.198Z,5.73
2023-01-17T14:01:24.888Z,5.70
2023-01-17T14:03:51.686Z,5.66
2023-01-17T14:06:29.396Z,5.63
2023-01-17T14:09:10.316Z,5.60
2023-01-17T14:11:51.811Z,5.56
2023-01-17T14:14:40.347Z,5.54
2023-01-17T14:17:36.656Z,5.50
2023-01-17T14:20:05.882Z,5.47
2023-01-17T14:22:39.012Z,5.45
2023-01-17T14:25:25.101Z,5.42
2023-01-17T14:27:54.878Z,5.37
2023-01-17T14:30:35.187Z,5.31
2023-01-17T14:33:01.673Z,5.25
2023-01-17T14:35:28.228Z,5.18
2023-01-17T14:37:54.774Z,5.07
2023-01-17T14:40:24.258Z,4.97
2023-01-17T14:42:59.527Z,4.83
2023-01-17T14:45:29.266Z,4.67
2023-01-17T14:47:58.672Z,4.53
2023-01-17T14:50:28.511Z,4.41
2023-01-17T14:53:20.959Z,4.31
2023-01-17T14:55:47.780Z,4.17
2023-01-17T14:58:40.718Z,4.03
2023-01-17T15:01:19.629Z,3.86
2023-01-17T15:03:49.659Z,3.70
2023-01-17T15:06:21.028Z,3.57
2023-01-17T15:08:49.097Z,3.45
2023-01-17T15:11:25.721Z,3.36
2023-01-17T15:13:55.391Z,3.27
2023-01-17T15:16:29.087Z,3.15
2023-01-17T15:18:57.334Z,3.05
2023-01-17T15:21:28.071Z,2.98
2023-01-17T15:23:58.245Z,2.91
2023-01-17T15:26:28.367Z,2.87
2023-01-17T15:29:03.198Z,2.85
2023-01-17T15:32:00.142Z,2.85
2023-01-17T15:34:35.920Z,2.82
2023-01-17T15:37:08.116Z,2.76
2023-01-17T15:39:37.545Z,2.75
2023-01-17T15:42:08.422Z,2.75
2023-01-17T15:44:48.055Z,2.77
2023-01-17T15:47:36.582Z,2.78
2023-01-17T15:50:28.664Z,2.74
2023-01-17T15:53:04.717Z,2.69
2023-01-17T15:55:37.969Z,2.64
2023-01-17T15:58:21.358Z,2.57
2023-01-17T16:00:48.100Z,2.40
2023-01-17T16:03:28.553Z,2.23
2023-01-17T16:05:57.413Z,2.06
2023-01-17T16:08:33.101Z,1.94
2023-01-17T16:11:02.818Z,1.86
2023-01-17T16:13:31.346Z,1.79
2023-01-17T16:16:14.678Z,1.72
2023-01-17T16:18:41.865Z,1.66
2023-01-17T16:21:20.968Z,1.61
2023-01-17T16:23:48.318Z,1.60
2023-01-17T16:26:15.651Z,1.61
2023-01-17T16:28:42.394Z,1.62
2023-01-17T16:31:09.193Z,1.61
2023-01-17T16:33:35.689Z,1.61
2023-01-17T16:36:02.218Z,1.63
2023-01-17T16:38:28.787Z,1.62
2023-01-17T16:40:55.307Z,1.61
2023-01-17T16:43:21.793Z,1.59
2023-01-17T16:45:52.972Z,1.56
2023-01-17T16:48:20.582Z,1.54
2023-01-17T16:50:49.710Z,1.53
2023-01-17T16:53:18.038Z,1.50
2023-01-17T16:55:44.778Z,1.47
2023-01-17T16:58:11.277Z,1.46
2023-01-17T17:00:40.053Z,1.45
2023-01-17T17:03:06.873Z,1.44
2023-01-17T17:05:33.369Z,1.46
2023-01-17T17:08:01.176Z,1.45
2023-01-17T17:10:27.915Z,1.40
2023-01-17T17:12:54.499Z,1.31
2023-01-17T17:15:21.090Z,1.22
2023-01-17T17:17:47.734Z,1.15
2023-01-17T17:20:15.611Z,1.13
2023-01-17T17:22:49.015Z,1.10
2023-01-17T17:25:15.595Z,1.07
2023-01-17T17:27:42.113Z,1.06
2023-01-17T17:30:09.755Z,1.09
2023-01-17T17:32:36.602Z,1.05
2023-01-17T17:35:03.229Z,1.00
2023-01-17T17:37:29.683Z,0.95
2023-01-17T17:39:57.330Z,0.92
2023-01-17T17:42:23.884Z,0.89
2023-01-17T17:44:50.377Z,0.87
2023-01-17T17:47:16.864Z,0.84
2023-01-17T17:49:43.437Z,0.80
2023-01-17T17:52:09.883Z,0.76
2023-01-17T17:54:36.486Z,0.72
2023-01-17T17:57:02.953Z,0.70
2023-01-17T17:59:29.541Z,0.68
2023-01-17T18:01:56.235Z,0.68
2023-01-17T18:04:22.846Z,0.67
2023-01-17T18:06:49.325Z,0.68
2023-01-17T18:09:15.928Z,0.68
2023-01-17T18:11:43.678Z,0.67
2023-01-17T18:14:14.311Z,0.67
2023-01-17T18:16:44.063Z,0.66
2023-01-17T18:19:20.339Z,0.64
2023-01-17T18:21:49.009Z,0.65
2023-01-17T18:24:17.401Z,0.68
2023-01-17T18:26:47.134Z,0.71
2023-01-17T18:29:15.701Z,0.72
2023-01-17T18:31:43.811Z,0.73
2023-01-17T18:34:13.885Z,0.74
2023-01-17T18:36:41.271Z,0.76
2023-01-17T18:39:13.197Z,0.75
2023-01-17T18:41:39.752Z,0.76
2023-01-17T18:44:07.361Z,0.77
2023-01-17T18:46:35.124Z,0.79
2023-01-17T18:49:02.280Z,0.79
2023-01-17T18:51:30.532Z,0.78
2023-01-17T18:53:56.958Z,0.78
2023-01-17T18:56:23.971Z,0.79
2023-01-17T18:58:50.973Z,0.79
2023-01-17T19:01:20.617Z,0.80
2023-01-17T19:03:48.865Z,0.81
2023-01-17T19:06:19.442Z,0.79
2023-01-17T19:08:46.026Z,0.77
2023-01-17T19:11:12.877Z,0.76
2023-01-17T19:13:39.605Z,0.75
2023-01-17T19:16:09.051Z,0.74
2023-01-17T19:18:35.755Z,0.73
2023-01-17T19:21:11.519Z,0.74
2023-01-17T19:23:38.673Z,0.74
2023-01-17T19:26:07.576Z,0.73
2023-01-17T19:28:36.973Z,0.74
2023-01-17T19:31:07.818Z,0.75
2023-01-17T19:33:36.198Z,0.76
2023-01-17T19:36:04.282Z,0.77
2023-01-17T19:38:30.773Z,0.78
2023-01-17T19:40:57.931Z,0.79
2023-01-17T19:43:24.398Z,0.81
2023-01-17T19:45:58.161Z,0.83
2023-01-17T19:48:28.024Z,0.84
2023-01-17T19:50:55.705Z,0.86
2023-01-17T19:53:23.393Z,0.89
2023-01-17T19:55:50.097Z,0.92
2023-01-17T19:58:16.658Z,0.93
2023-01-17T20:00:46.674Z,0.95
2023-01-17T20:03:13.730Z,0.99
2023-01-17T20:05:40.498Z,1.04
2023-01-17T20:08:07.021Z,1.08
2023-01-17T20:10:33.488Z,1.14
2023-01-17T20:12:59.867Z,1.19
2023-01-17T20:15:26.557Z,1.23
2023-01-17T20:17:53.056Z,1.27
2023-01-17T20:20:19.667Z,1.31
2023-01-17T20:22:46.359Z,1.44
2023-01-17T20:25:13.103Z,1.66
2023-01-17T20:27:39.853Z,1.79
2023-01-17T20:30:19.255Z,1.95
2023-01-17T20:32:46.805Z,2.15
2023-01-17T20:35:13.505Z,2.28
2023-01-17T20:37:39.937Z,2.43
2023-01-17T20:40:07.121Z,2.61
2023-01-17T20:42:36.407Z,2.73
2023-01-17T20:45:03.040Z,2.84
2023-01-17T20:47:29.996Z,2.90
2023-01-17T20:49:56.474Z,2.96
2023-01-17T20:52:23.073Z,2.99
2023-01-17T20:54:49.508Z,3.04
2023-01-17T20:57:16.155Z,3.09
2023-01-17T20:59:42.594Z,3.18
2023-01-17T21:02:09.194Z,3.25
2023-01-17T21:04:35.799Z,3.31
2023-01-17T21:07:02.314Z,3.36
2023-01-17T21:09:28.853Z,3.40
2023-01-17T21:11:55.389Z,3.43
2023-01-17T21:14:22.139Z,3.46
2023-01-17T21:16:48.628Z,3.50
2023-01-17T21:19:15.221Z,3.53
2023-01-17T21:21:41.747Z,3.55
2023-01-17T21:24:08.441Z,3.56
2023-01-17T21:26:34.947Z,3.55
2023-01-17T21:29:01.432Z,3.56
2023-01-17T21:31:30.609Z,3.57
2023-01-17T21:34:03.601Z,3.55
2023-01-17T21:36:33.090Z,3.50
2023-01-17T21:39:02.175Z,3.48
2023-01-17T21:41:30.281Z,3.44
2023-01-17T21:43:59.111Z,3.43
2023-01-17T21:46:27.189Z,3.38
2023-01-17T21:48:53.974Z,3.32
2023-01-17T21:51:20.591Z,3.24
2023-01-17T21:53:47.242Z,3.18
2023-01-17T21:56:14.200Z,3.08
2023-01-17T21:58:40.778Z,2.97
2023-01-17T22:01:07.809Z,2.86
2023-01-17T22:03:35.596Z,2.76
2023-01-17T22:06:02.121Z,2.67
2023-01-17T22:08:33.066Z,2.61
2023-01-17T22:11:05.172Z,2.56
2023-01-17T22:13:31.775Z,2.51
2023-01-17T22:16:00.090Z,2.46
2023-01-17T22:18:28.287Z,2.43
2023-01-17T22:20:55.477Z,2.40
2023-01-17T22:23:22.118Z,2.38
2023-01-17T22:25:48.684Z,2.34
2023-01-17T22:28:15.199Z,2.32
2023-01-17T22:30:41.833Z,2.28
2023-01-17T22:33:08.389Z,2.25
2023-01-17T22:35:35.024Z,2.21
2023-01-17T22:38:01.438Z,2.19
2023-01-17T22:40:27.855Z,2.17
2023-01-17T22:42:54.772Z,2.16
2023-01-17T22:45:21.402Z,2.15
2023-01-17T22:47:47.937Z,2.14
2023-01-17T22:50:14.411Z,2.13
2023-01-17T22:52:40.922Z,2.12
2023-01-17T22:55:08.074Z,2.10
2023-01-17T22:57:34.610Z,2.09
2023-01-17T23:00:01.149Z,2.07
2023-01-17T23:02:27.721Z,2.06
2023-01-17T23:04:54.355Z,2.05
2023-01-17T23:07:20.878Z,2.03
2023-01-17T23:09:47.339Z,2.02
2023-01-17T23:12:13.767Z,2.00
2023-01-17T23:14:40.490Z,1.98
2023-01-17T23:17:08.195Z,1.94
2023-01-17T23:19:37.883Z,1.90
2023-01-17T23:22:07.415Z,1.86
2023-01-17T23:24:33.887Z,1.81
2023-01-17T23:27:00.321Z,1.77
2023-01-17T23:29:26.764Z,1.72
2023-01-17T23:31:53.292Z,1.66
2023-01-17T23:34:19.882Z,1.59
2023-01-17T23:36:46.723Z,1.52
2023-01-17T23:39:13.265Z,1.45
2023-01-17T23:41:39.812Z,1.37
2023-01-17T23:44:06.244Z,1.30
2023-01-17T23:46:32.757Z,1.22
2023-01-17T23:48:59.325Z,1.16
2023-01-17T23:51:25.863Z,1.11
2023-01-17T23:53:52.365Z,1.07
2023-01-17T23:56:22.223Z,1.03
2023-01-17T23:58:49.121Z,0.97
